createdAt,value
2018-07-09T00:01:39.849Z,94732.33
2018-07-09T00:04:09.008Z,94726.06
2018-07-09T00:06:38.285Z,94731.92
2018-07-09T00:09:07.582Z,94733.45
2018-07-09T00:11:37.071Z,94734.58
2018-07-09T00:14:06.093Z,94739.13
2018-07-09T00:16:34.839Z,94738.67
2018-07-09T00:19:04.008Z,94732.00
2018-07-09T00:21:33.076Z,94738.42
2018-07-09T00:24:02.063Z,94739.58
2018-07-09T00:26:31.515Z,94740.83
2018-07-09T00:29:00.531Z,94749.00
2018-07-09T00:31:29.536Z,94745.11
2018-07-09T00:33:58.677Z,94745.99
2018-07-09T00:36:27.719Z,94740.59
2018-07-09T00:38:57.119Z,94747.63
2018-07-09T00:41:26.650Z,94743.23
2018-07-09T00:43:55.591Z,94739.45
2018-07-09T00:46:24.839Z,94743.60
2018-07-09T00:48:53.968Z,94737.30
2018-07-09T00:51:22.667Z,94742.56
2018-07-09T00:53:51.686Z,94741.56
2018-07-09T00:56:21.173Z,94732.27
2018-07-09T00:58:50.250Z,94728.87
2018-07-09T01:01:19.763Z,94730.88
2018-07-09T01:03:49.302Z,94722.57
2018-07-09T01:06:18.571Z,94725.60
2018-07-09T01:08:47.487Z,94728.38
2018-07-09T01:11:27.650Z,94721.81
2018-07-09T01:13:56.730Z,94720.55
2018-07-09T01:16:25.603Z,94721.45
2018-07-09T01:18:55.045Z,94719.41
2018-07-09T01:21:24.264Z,94715.75
2018-07-09T01:23:53.325Z,94717.23
2018-07-09T01:26:22.655Z,94716.34
2018-07-09T01:28:52.014Z,94719.23
2018-07-09T01:31:21.032Z,94719.73
2018-07-09T01:33:50.350Z,94724.78
2018-07-09T01:36:19.335Z,94718.34
2018-07-09T01:38:48.325Z,94724.91
2018-07-09T01:41:17.241Z,94721.34
2018-07-09T01:43:46.316Z,94717.58
2018-07-09T01:46:15.415Z,94715.34
2018-07-09T01:48:44.719Z,94718.34
2018-07-09T01:51:13.439Z,94723.75
2018-07-09T01:53:42.996Z,94714.58
2018-07-09T01:56:12.498Z,94714.95
2018-07-09T01:58:41.154Z,94720.73
2018-07-09T02:01:10.094Z,94722.64
2018-07-09T02:03:39.304Z,94717.23
2018-07-09T02:06:08.287Z,94719.50
2018-07-09T02:08:37.404Z,94713.70
2018-07-09T02:11:06.800Z,94718.75
2018-07-09T02:13:36.403Z,94714.75
2018-07-09T02:16:05.284Z,94710.59
2018-07-09T02:18:34.694Z,94709.61
2018-07-09T02:21:04.096Z,94705.45
2018-07-09T02:23:32.980Z,94710.66
2018-07-09T02:26:03.020Z,94709.89
2018-07-09T02:28:32.156Z,94710.64
2018-07-09T02:31:01.007Z,94718.44
2018-07-09T02:33:30.412Z,94711.25
2018-07-09T02:35:59.301Z,94718.67
2018-07-09T02:38:28.003Z,94717.55
2018-07-09T02:40:57.713Z,94713.00
2018-07-09T02:43:26.464Z,94716.14
2018-07-09T02:45:55.378Z,94715.48
2018-07-09T02:48:24.420Z,94718.74
2018-07-09T02:50:53.359Z,94716.95
2018-07-09T02:53:22.824Z,94718.83
2018-07-09T02:55:52.195Z,94717.05
2018-07-09T02:58:21.286Z,94711.37
2018-07-09T03:00:50.573Z,94717.89
2018-07-09T03:03:19.444Z,94714.41
2018-07-09T03:05:48.239Z,94713.29
2018-07-09T03:08:17.045Z,94718.39
2018-07-09T03:10:46.857Z,94722.45
2018-07-09T03:13:15.935Z,94721.95
2018-07-09T03:15:44.920Z,94721.65
2018-07-09T03:18:14.077Z,94729.59
2018-07-09T03:20:43.321Z,94723.16
2018-07-09T03:23:12.427Z,94725.67
2018-07-09T03:25:41.539Z,94727.62
2018-07-09T03:28:11.045Z,94738.30
2018-07-09T03:30:39.934Z,94736.64
2018-07-09T03:33:09.165Z,94738.80
2018-07-09T03:35:37.989Z,94739.20
2018-07-09T03:38:07.022Z,94739.91
2018-07-09T03:40:36.239Z,94738.92
2018-07-09T03:43:04.978Z,94742.19
2018-07-09T03:45:34.010Z,94731.57
2018-07-09T03:48:03.409Z,94742.75
2018-07-09T03:50:32.302Z,94741.22
2018-07-09T03:53:05.027Z,94736.42
2018-07-09T03:55:36.422Z,94739.16
2018-07-09T03:58:05.852Z,94746.70
2018-07-09T04:00:35.161Z,94745.64
2018-07-09T04:03:04.178Z,94742.09
2018-07-09T04:05:33.366Z,94739.03
2018-07-09T04:08:02.614Z,94749.02
2018-07-09T04:10:31.810Z,94746.14
2018-07-09T04:13:02.937Z,94748.80
2018-07-09T04:15:31.994Z,94752.93
2018-07-09T04:18:01.175Z,94756.25
2018-07-09T04:20:30.490Z,94765.34
2018-07-09T04:22:59.269Z,94758.12
2018-07-09T04:25:28.373Z,94767.23
2018-07-09T04:27:57.712Z,94764.05
2018-07-09T04:30:26.663Z,94759.09
2018-07-09T04:32:55.994Z,94765.94
2018-07-09T04:35:25.389Z,94755.58
2018-07-09T04:37:54.718Z,94763.33
2018-07-09T04:40:24.879Z,94766.33
2018-07-09T04:42:55.870Z,94764.27
2018-07-09T04:45:25.249Z,94770.70
2018-07-09T04:47:54.535Z,94762.64
2018-07-09T04:50:24.499Z,94770.12
2018-07-09T04:52:53.475Z,94774.20
2018-07-09T04:55:22.319Z,94773.40
2018-07-09T04:57:51.659Z,94769.36
2018-07-09T05:00:20.722Z,94779.02
2018-07-09T05:02:49.672Z,94769.45
2018-07-09T05:05:19.043Z,94777.95
2018-07-09T05:07:47.889Z,94773.06
2018-07-09T05:10:17.006Z,94770.28
2018-07-09T05:12:46.481Z,94770.46
2018-07-09T05:15:15.504Z,94768.03
2018-07-09T05:17:44.411Z,94775.41
2018-07-09T05:20:13.602Z,94776.98
2018-07-09T05:22:42.604Z,94773.28
2018-07-09T05:25:11.574Z,94771.73
2018-07-09T05:27:41.010Z,94771.34
2018-07-09T05:30:11.543Z,94768.59
2018-07-09T05:32:41.773Z,94764.34
2018-07-09T05:35:10.850Z,94767.39
2018-07-09T05:37:40.019Z,94768.80
2018-07-09T05:40:09.465Z,94762.05
2018-07-09T05:42:39.126Z,94768.34
2018-07-09T05:45:08.202Z,94773.61
2018-07-09T05:47:37.721Z,94762.56
2018-07-09T05:50:07.336Z,94758.04
2018-07-09T05:52:36.575Z,94757.97
2018-07-09T05:55:05.715Z,94755.27
2018-07-09T05:57:35.543Z,94764.59
2018-07-09T06:00:04.515Z,94760.78
2018-07-09T06:02:34.141Z,94763.22
2018-07-09T06:05:04.414Z,94758.91
2018-07-09T06:07:33.359Z,94757.74
2018-07-09T06:10:03.203Z,94762.16
2018-07-09T06:12:32.109Z,94767.61
2018-07-09T06:15:01.038Z,94756.17
2018-07-09T06:17:30.898Z,94763.83
2018-07-09T06:20:00.657Z,94766.17
2018-07-09T06:22:29.610Z,94765.94
2018-07-09T06:24:58.859Z,94765.66
2018-07-09T06:27:27.861Z,94764.34
2018-07-09T06:29:56.717Z,94767.25
2018-07-09T06:32:26.117Z,94771.89
2018-07-09T06:34:55.099Z,94740.45
2018-07-09T06:37:24.031Z,94762.01
2018-07-09T06:39:53.127Z,94765.25
2018-07-09T06:42:22.114Z,94765.78
2018-07-09T06:44:51.287Z,94762.13
2018-07-09T06:47:20.424Z,94764.98
2018-07-09T06:49:49.695Z,94766.09
2018-07-09T06:52:18.479Z,94766.88
2018-07-09T06:54:47.555Z,94764.89
2018-07-09T06:57:16.398Z,94760.44
2018-07-09T06:59:45.550Z,94760.36
2018-07-09T07:02:15.018Z,94761.55
2018-07-09T07:04:44.273Z,94754.03
2018-07-09T07:07:13.218Z,94745.58
2018-07-09T07:09:42.070Z,94756.29
2018-07-09T07:12:11.128Z,94752.81
2018-07-09T07:14:40.146Z,94750.33
2018-07-09T07:17:08.865Z,94751.67
2018-07-09T07:19:37.823Z,94743.38
2018-07-09T07:22:07.841Z,94747.23
2018-07-09T07:24:36.932Z,94741.05
2018-07-09T07:27:05.939Z,94746.88
2018-07-09T07:29:34.823Z,94748.23
2018-07-09T07:32:03.666Z,94744.18
2018-07-09T07:34:32.624Z,94747.03
2018-07-09T07:37:02.141Z,94740.93
2018-07-09T07:39:31.143Z,94746.95
2018-07-09T07:41:59.986Z,94754.95
2018-07-09T07:44:28.821Z,94750.98
2018-07-09T07:46:58.378Z,94758.13
2018-07-09T07:49:27.814Z,94751.45
2018-07-09T07:51:57.004Z,94755.88
2018-07-09T07:54:26.614Z,94751.78
2018-07-09T07:56:55.479Z,94749.05
2018-07-09T07:59:24.363Z,94750.11
2018-07-09T08:01:53.510Z,94747.56
2018-07-09T08:04:22.480Z,94747.50
2018-07-09T08:06:51.495Z,94740.98
2018-07-09T08:09:21.732Z,94757.61
2018-07-09T08:11:50.711Z,94751.72
2018-07-09T08:14:21.216Z,94752.72
2018-07-09T08:16:50.711Z,94755.92
2018-07-09T08:19:19.833Z,94756.41
2018-07-09T08:21:49.058Z,94756.63
2018-07-09T08:24:17.857Z,94753.86
2018-07-09T08:26:48.586Z,94759.95
2018-07-09T08:29:17.610Z,94768.30
2018-07-09T08:31:48.860Z,94763.59
2018-07-09T08:34:17.573Z,94759.59
2018-07-09T08:36:46.532Z,94760.48
2018-07-09T08:39:15.690Z,94758.83
2018-07-09T08:41:44.908Z,94758.51
2018-07-09T08:44:14.036Z,94753.95
2018-07-09T08:46:43.530Z,94759.02
2018-07-09T08:49:13.360Z,94761.58
2018-07-09T08:51:43.330Z,94759.91
2018-07-09T08:54:12.775Z,94763.69
2018-07-09T08:56:41.563Z,94764.80
2018-07-09T08:59:10.882Z,94764.61
2018-07-09T09:01:40.686Z,94762.06
2018-07-09T09:04:09.491Z,94758.16
2018-07-09T09:06:39.379Z,94757.46
2018-07-09T09:09:08.905Z,94757.69
2018-07-09T09:11:37.725Z,94762.13
2018-07-09T09:14:07.118Z,94761.30
2018-07-09T09:16:37.101Z,94764.44
2018-07-09T09:19:06.013Z,94765.22
2018-07-09T09:21:35.516Z,94762.17
2018-07-09T09:24:04.778Z,94761.66
2018-07-09T09:26:33.605Z,94758.10
2018-07-09T09:29:02.451Z,94753.38
2018-07-09T09:31:32.285Z,94753.12
2018-07-09T09:34:01.192Z,94767.40
2018-07-09T09:36:30.088Z,94760.74
2018-07-09T09:38:59.511Z,94757.37
2018-07-09T09:41:28.591Z,94759.08
2018-07-09T09:43:57.692Z,94767.71
2018-07-09T09:46:26.717Z,94761.27
2018-07-09T09:51:37.049Z,94768.77
2018-07-09T09:54:06.572Z,94763.77
2018-07-09T09:56:35.688Z,94759.64
2018-07-09T09:59:04.882Z,94753.91
2018-07-09T10:01:34.600Z,94754.17
2018-07-09T10:04:03.337Z,94755.02
2018-07-09T10:06:32.602Z,94755.43
2018-07-09T10:09:02.131Z,94753.09
2018-07-09T10:11:30.956Z,94751.72
2018-07-09T10:14:00.269Z,94752.30
2018-07-09T10:16:29.723Z,94748.22
2018-07-09T10:18:58.626Z,94749.10
2018-07-09T10:21:27.439Z,94742.59
2018-07-09T10:23:57.179Z,94739.63
2018-07-09T10:26:26.250Z,94752.59
2018-07-09T10:28:55.561Z,94754.12
2018-07-09T10:31:24.349Z,94751.06
2018-07-09T10:33:53.352Z,94750.73
2018-07-09T10:36:22.434Z,94753.09
2018-07-09T10:38:51.771Z,94741.25
2018-07-09T10:41:20.839Z,94745.89
2018-07-09T10:43:50.019Z,94742.20
2018-07-09T10:46:19.290Z,94736.26
2018-07-09T10:48:48.208Z,94730.89
2018-07-09T10:51:17.211Z,94731.75
2018-07-09T10:53:46.827Z,94725.51
2018-07-09T10:56:15.918Z,94722.98
2018-07-09T10:58:44.890Z,94720.78
2018-07-09T11:01:14.254Z,94720.70
2018-07-09T11:03:43.514Z,94719.31
2018-07-09T11:06:12.508Z,94717.53
2018-07-09T11:08:41.690Z,94716.33
2018-07-09T11:11:10.507Z,94714.53
2018-07-09T11:13:39.883Z,94713.41
2018-07-09T11:16:09.089Z,94712.00
2018-07-09T11:18:38.099Z,94705.78
2018-07-09T11:21:07.193Z,94706.02
2018-07-09T11:23:36.507Z,94687.86
2018-07-09T11:26:05.525Z,94711.34
2018-07-09T11:28:34.382Z,94711.65
2018-07-09T11:31:03.903Z,94709.63
2018-07-09T11:33:32.988Z,94705.63
2018-07-09T11:36:02.658Z,94712.62
2018-07-09T11:38:32.106Z,94712.84
2018-07-09T11:41:01.200Z,94713.07
2018-07-09T11:43:30.192Z,94705.17
2018-07-09T11:45:59.303Z,94712.39
2018-07-09T11:48:28.564Z,94709.98
2018-07-09T11:50:57.595Z,94707.51
2018-07-09T11:53:27.019Z,94709.73
2018-07-09T11:55:56.070Z,94707.27
2018-07-09T11:58:25.242Z,94701.81
2018-07-09T12:00:54.106Z,94697.13
2018-07-09T12:03:22.829Z,94698.38
2018-07-09T12:05:51.636Z,94700.63
2018-07-09T12:08:20.474Z,94694.59
2018-07-09T12:10:49.445Z,94703.86
2018-07-09T12:13:18.719Z,94679.30
2018-07-09T12:15:47.989Z,94694.36
2018-07-09T12:18:17.216Z,94688.95
2018-07-09T12:20:46.953Z,94692.82
2018-07-09T12:23:16.451Z,94687.69
2018-07-09T12:25:45.200Z,94692.13
2018-07-09T12:28:14.022Z,94701.97
2018-07-09T12:30:43.453Z,94686.44
2018-07-09T12:33:12.541Z,94694.97
2018-07-09T12:35:41.674Z,94686.26
2018-07-09T12:38:10.919Z,94697.47
2018-07-09T12:40:39.817Z,94682.44
2018-07-09T12:43:09.200Z,94685.90
2018-07-09T12:45:38.660Z,94685.17
2018-07-09T12:48:07.817Z,94683.95
2018-07-09T12:50:36.818Z,94683.46
2018-07-09T12:53:06.068Z,94683.64
2018-07-09T12:55:34.991Z,94677.76
2018-07-09T12:58:04.011Z,94679.55
2018-07-09T13:00:33.379Z,94668.32
2018-07-09T13:03:02.430Z,94664.36
2018-07-09T13:05:31.718Z,94675.31
2018-07-09T13:08:00.715Z,94666.64
2018-07-09T13:10:30.511Z,94659.05
2018-07-09T13:12:59.611Z,94657.86
2018-07-09T13:15:29.110Z,94657.41
2018-07-09T13:17:58.191Z,94656.16
2018-07-09T13:20:27.259Z,94649.06
2018-07-09T13:22:56.630Z,94657.67
2018-07-09T13:25:26.392Z,94658.13
2018-07-09T13:27:55.337Z,94660.55
2018-07-09T13:30:24.976Z,94654.88
2018-07-09T13:32:54.406Z,94659.96
2018-07-09T13:35:23.916Z,94659.08
2018-07-09T13:37:52.988Z,94665.28
2018-07-09T13:40:22.147Z,94660.52
2018-07-09T13:42:51.240Z,94673.96
2018-07-09T13:45:20.561Z,94659.73
2018-07-09T13:47:49.428Z,94652.63
2018-07-09T13:50:18.800Z,94652.05
2018-07-09T13:52:48.238Z,94659.09
2018-07-09T13:55:17.236Z,94638.47
2018-07-09T13:57:46.743Z,94658.91
2018-07-09T14:00:15.945Z,94659.61
2018-07-09T14:02:45.045Z,94667.14
2018-07-09T14:05:13.825Z,94670.48
2018-07-09T14:07:42.738Z,94668.20
2018-07-09T14:10:11.728Z,94673.52
2018-07-09T14:12:40.830Z,94662.75
2018-07-09T14:15:10.115Z,94665.73
2018-07-09T14:17:39.292Z,94663.35
2018-07-09T14:20:36.850Z,94664.02
2018-07-09T14:23:06.716Z,94659.42
2018-07-09T14:25:35.894Z,94650.31
2018-07-09T14:28:06.065Z,94648.45
2018-07-09T14:30:35.431Z,94649.58
2018-07-09T14:33:04.911Z,94655.39
2018-07-09T14:35:34.421Z,94660.73
2018-07-09T14:38:03.528Z,94653.60
2018-07-09T14:40:32.417Z,94644.34
2018-07-09T14:43:02.122Z,94649.58
2018-07-09T14:45:31.299Z,94649.53
2018-07-09T14:48:00.093Z,94644.53
2018-07-09T14:50:29.611Z,94643.22
2018-07-09T14:52:58.627Z,94636.57
2018-07-09T14:55:27.819Z,94638.17
2018-07-09T14:57:57.387Z,94627.55
2018-07-09T15:00:26.530Z,94636.84
2018-07-09T15:02:56.107Z,94633.75
2018-07-09T15:05:26.336Z,94634.05
2018-07-09T15:07:55.345Z,94629.11
2018-07-09T15:10:24.423Z,94632.45
2018-07-09T15:12:53.856Z,94639.05
2018-07-09T15:15:23.650Z,94635.44
2018-07-09T15:17:52.472Z,94639.83
2018-07-09T15:20:21.635Z,94645.75
2018-07-09T15:22:51.151Z,94637.35
2018-07-09T15:25:20.257Z,94632.59
2018-07-09T15:27:49.291Z,94644.05
2018-07-09T15:30:17.987Z,94645.28
2018-07-09T15:32:46.807Z,94646.67
2018-07-09T15:35:16.163Z,94655.28
2018-07-09T15:37:45.302Z,94656.22
2018-07-09T15:40:15.051Z,94659.31
2018-07-09T15:42:44.469Z,94664.98
2018-07-09T15:45:13.679Z,94662.19
2018-07-09T15:47:42.539Z,94663.99
2018-07-09T15:50:11.435Z,94664.85
2018-07-09T15:52:40.327Z,94668.48
2018-07-09T15:55:09.395Z,94671.90
2018-07-09T15:57:38.724Z,94673.64
2018-07-09T16:00:07.909Z,94678.89
2018-07-09T16:02:37.002Z,94675.53
2018-07-09T16:05:06.763Z,94667.89
2018-07-09T16:07:35.943Z,94667.41
2018-07-09T16:10:04.923Z,94670.91
2018-07-09T16:12:34.070Z,94666.77
2018-07-09T16:15:03.280Z,94666.03
2018-07-09T16:17:32.431Z,94668.47
2018-07-09T16:20:01.722Z,94666.27
2018-07-09T16:22:31.112Z,94670.30
2018-07-09T16:25:00.126Z,94667.02
2018-07-09T16:27:29.367Z,94663.63
2018-07-09T16:29:58.260Z,94668.05
2018-07-09T16:32:27.103Z,94662.11
2018-07-09T16:34:56.197Z,94675.20
2018-07-09T16:37:25.396Z,94669.88
2018-07-09T16:39:54.387Z,94673.95
2018-07-09T16:42:24.565Z,94682.56
2018-07-09T16:44:54.040Z,94677.78
2018-07-09T16:47:23.106Z,94678.53
2018-07-09T16:49:52.182Z,94682.27
2018-07-09T16:52:21.222Z,94678.00
2018-07-09T16:54:50.101Z,94680.80
2018-07-09T16:57:19.199Z,94680.95
2018-07-09T16:59:48.083Z,94683.14
2018-07-09T17:02:17.570Z,94678.78
2018-07-09T17:04:46.947Z,94690.82
2018-07-09T17:07:15.893Z,94690.76
2018-07-09T17:09:44.786Z,94688.28
2018-07-09T17:12:14.105Z,94685.42
2018-07-09T17:14:43.071Z,94686.03
2018-07-09T17:17:12.079Z,94689.59
2018-07-09T17:19:41.312Z,94691.73
2018-07-09T17:22:10.778Z,94689.71
2018-07-09T17:24:39.664Z,94691.75
2018-07-09T17:27:08.899Z,94690.56
2018-07-09T17:29:37.767Z,94688.42
2018-07-09T17:32:08.146Z,94692.83
2018-07-09T17:34:37.291Z,94694.52
2018-07-09T17:37:06.149Z,94699.48
2018-07-09T17:39:34.979Z,94696.00
2018-07-09T17:42:04.317Z,94694.95
2018-07-09T17:44:33.582Z,94694.00
2018-07-09T17:47:02.543Z,94693.45
2018-07-09T17:49:31.911Z,94695.27
2018-07-09T17:52:00.964Z,94691.38
2018-07-09T17:54:29.819Z,94694.89
2018-07-09T17:56:59.164Z,94696.52
2018-07-09T17:59:28.539Z,94693.85
2018-07-09T18:01:57.369Z,94695.84
2018-07-09T18:04:26.549Z,94706.86
2018-07-09T18:06:55.556Z,94709.84
2018-07-09T18:09:28.692Z,94703.63
2018-07-09T18:12:03.468Z,94715.27
2018-07-09T18:14:36.612Z,94722.36
2018-07-09T18:17:05.599Z,94726.84
2018-07-09T18:19:34.757Z,94729.56
2018-07-09T18:22:04.127Z,94726.48
2018-07-09T18:24:33.103Z,94732.95
2018-07-09T18:27:01.798Z,94734.06
2018-07-09T18:29:31.040Z,94734.00
2018-07-09T18:31:59.910Z,94733.95
2018-07-09T18:34:28.951Z,94737.58
2018-07-09T18:36:58.303Z,94728.83
2018-07-09T18:39:27.182Z,94738.95
2018-07-09T18:41:56.256Z,94743.30
2018-07-09T18:44:25.419Z,94749.45
2018-07-09T18:46:54.415Z,94750.31
2018-07-09T18:49:23.175Z,94757.09
2018-07-09T18:51:52.495Z,94751.95
2018-07-09T18:54:21.375Z,94756.75
2018-07-09T18:56:50.140Z,94760.59
2018-07-09T18:59:19.642Z,94764.59
2018-07-09T19:01:48.870Z,94765.59
2018-07-09T19:04:18.035Z,94763.88
2018-07-09T19:07:06.175Z,94776.85
2018-07-09T19:09:35.575Z,94769.14
2018-07-09T19:12:05.645Z,94775.80
2018-07-09T19:14:40.280Z,94777.78
2018-07-09T19:18:20.028Z,94774.84
2018-07-09T19:21:28.490Z,94786.13
2018-07-09T19:23:56.358Z,94786.55
2018-07-09T19:26:23.874Z,94804.63
2018-07-09T19:28:51.854Z,94796.64
2018-07-09T19:31:19.385Z,94796.59
2018-07-09T19:33:47.053Z,94796.24
2018-07-09T19:36:14.731Z,94806.61
2018-07-09T19:38:42.097Z,94817.34
2018-07-09T19:41:10.029Z,94817.95
2018-07-09T19:43:38.372Z,94809.22
2018-07-09T19:46:05.986Z,94826.09
2018-07-09T19:48:33.259Z,94825.97
2018-07-09T19:51:01.108Z,94825.52
2018-07-09T19:53:28.575Z,94819.45
2018-07-09T19:55:56.532Z,94822.00
2018-07-09T19:58:24.038Z,94819.89
2018-07-09T20:00:51.360Z,94818.55
2018-07-09T20:03:18.973Z,94818.81
2018-07-09T20:05:46.690Z,94816.67
2018-07-09T20:08:14.012Z,94810.13
2018-07-09T20:10:46.599Z,94805.88
2018-07-09T20:13:19.510Z,94810.03
2018-07-09T20:15:52.032Z,94812.83
2018-07-09T20:18:19.377Z,94811.56
2018-07-09T20:20:47.322Z,94811.42
2018-07-09T20:23:14.672Z,94812.95
2018-07-09T20:25:42.005Z,94812.97
2018-07-09T20:28:09.773Z,94820.13
2018-07-09T20:30:37.162Z,94813.96
2018-07-09T20:33:04.507Z,94815.48
2018-07-09T20:35:32.171Z,94811.69
2018-07-09T20:37:59.512Z,94802.00
2018-07-09T20:40:27.069Z,94817.73
2018-07-09T20:42:54.963Z,94818.75
2018-07-09T20:45:22.503Z,94815.56
2018-07-09T20:47:49.957Z,94811.30
2018-07-09T20:50:17.459Z,94809.30
2018-07-09T20:52:44.798Z,94811.94
2018-07-09T20:55:12.158Z,94815.34
2018-07-09T20:57:40.119Z,94814.08
2018-07-09T21:00:07.453Z,94807.26
2018-07-09T21:02:34.787Z,94802.24
2018-07-09T21:05:02.314Z,94812.17
2018-07-09T21:07:29.920Z,94812.56
2018-07-09T21:09:57.253Z,94818.24
2018-07-09T21:12:24.990Z,94821.53
2018-07-09T21:14:52.522Z,94819.26
2018-07-09T21:17:19.978Z,94824.41
2018-07-09T21:19:47.342Z,94821.77
2018-07-09T21:22:14.763Z,94824.41
2018-07-09T21:24:42.244Z,94828.33
2018-07-09T21:27:09.929Z,94829.32
2018-07-09T21:29:37.266Z,94823.64
2018-07-09T21:32:04.620Z,94827.42
2018-07-09T21:34:32.400Z,94825.93
2018-07-09T21:36:59.740Z,94826.80
2018-07-09T21:39:27.070Z,94821.13
2018-07-09T21:41:54.421Z,94817.88
2018-07-09T21:44:21.912Z,94810.06
2018-07-09T21:46:49.250Z,94815.48
2018-07-09T21:49:16.958Z,94812.83
2018-07-09T21:51:44.495Z,94810.82
2018-07-09T21:54:11.827Z,94811.56
2018-07-09T21:56:39.524Z,94812.20
2018-07-09T21:59:06.970Z,94806.66
2018-07-09T22:01:34.280Z,94811.94
2018-07-09T22:04:02.206Z,94807.80
2018-07-09T22:06:29.539Z,94804.04
2018-07-09T22:08:56.894Z,94805.67
2018-07-09T22:11:24.267Z,94801.64
2018-07-09T22:13:51.718Z,94805.41
2018-07-09T22:16:19.118Z,94807.69
2018-07-09T22:18:46.948Z,94796.85
2018-07-09T22:21:14.405Z,94792.71
2018-07-09T22:23:41.751Z,94796.22
2018-07-09T22:26:09.639Z,94795.21
2018-07-09T22:28:37.094Z,94793.34
2018-07-09T22:31:06.198Z,94797.23
2018-07-09T22:33:35.235Z,94796.72
2018-07-09T22:36:04.065Z,94799.38
2018-07-09T22:38:33.254Z,94801.39
2018-07-09T22:41:02.490Z,94808.81
2018-07-09T22:43:42.215Z,94813.73
2018-07-09T22:46:11.740Z,94807.67
2018-07-09T22:48:40.599Z,94811.20
2018-07-09T22:51:09.584Z,94816.11
2018-07-09T22:53:38.609Z,94810.70
2018-07-09T22:56:10.195Z,94815.22
2018-07-09T22:58:41.010Z,94815.84
2018-07-09T23:01:10.804Z,94797.33
2018-07-09T23:03:39.806Z,94822.91
2018-07-09T23:06:09.525Z,94815.81
2018-07-09T23:08:38.599Z,94823.23
2018-07-09T23:13:24.426Z,94820.84
2018-07-09T23:17:01.621Z,94822.84
2018-07-09T23:22:24.682Z,94813.27
2018-07-09T23:24:52.019Z,94814.66
2018-07-09T23:27:19.500Z,94801.96
2018-07-09T23:29:47.391Z,94811.02
2018-07-09T23:32:14.931Z,94804.62
2018-07-09T23:34:42.355Z,94804.99
2018-07-09T23:37:10.306Z,94800.95
2018-07-09T23:39:37.654Z,94794.69
2018-07-09T23:42:05.087Z,94792.14
2018-07-09T23:44:32.552Z,94795.94
2018-07-09T23:46:59.883Z,94794.69
2018-07-09T23:49:27.206Z,94787.39
2018-07-09T23:51:54.932Z,94786.77
2018-07-09T23:54:22.254Z,94786.39
2018-07-09T23:56:58.031Z,94784.11
2018-07-09T23:59:37.865Z,94781.48
